Search for airport 
image banner adimage banner adimage banner ad
image banner ad

CL46 - Quail Lake Sky Park

Located in Gorman/Lancaster, United States

ICAO - CL46, IATA -

Data provided by Airmate  

General information

Coordinates: N34°46'4" W118°43'54"
Elevation is 3370 feet MSL.
Magnetic variation is 14° East
View others Airports in California

Operational data

Special qualification required
Current time UTC:
Current local time:
Weather at : KWJF - General Wm J Fox Airfield ( 47 km )
METAR: KWJF 270456Z AUTO 03004KT 10SM CLR 26/11 A3002 RMK AO2 SLP145 T02560111
TAF: KWJF 262349Z 2700/2724 24007KT P6SM VCTS SCT070CB OVC100 FM270200 23010KT P6SM BKN120 FM270700 VRB03KT P6SM SCT150 FM272200 23012KT P6SM VCTS BKN090CB
View NOTAMs / SUP AIP / TFR affecting this airport [VIEW]
Communications frequencies: [VIEW]

Runways:

RWY identifierQFULength (ft)Width (ft)SurfaceLDA (ft)
08310040ASPH
26310040ASPH

Airport contact information

Address: Gorman/Lancaster United States

Satellite view of CL46